sensor_id;sensor_type;location;lat;lon;timestamp;pressure;altitude;pressure_sealevel;temperature;humidity
22653;BME280;11493;43.344;26.226;2023-03-04T00:02:19;99413.03;;;6.66;100.00
22653;BME280;11493;43.344;26.226;2023-03-04T00:04:46;99409.78;;;6.64;100.00
22653;BME280;11493;43.344;26.226;2023-03-04T00:07:12;99413.25;;;6.69;100.00
22653;BME280;11493;43.344;26.226;2023-03-04T00:09:44;99413.50;;;6.73;100.00
22653;BME280;11493;43.344;26.226;2023-03-04T00:12:11;99407.41;;;6.81;100.00
22653;BME280;11493;43.344;26.226;2023-03-04T00:14:39;99415.06;;;6.79;100.00
22653;BME280;11493;43.344;26.226;2023-03-04T00:17:06;99407.34;;;6.86;100.00
22653;BME280;11493;43.344;26.226;2023-03-04T00:19:33;99414.97;;;6.89;100.00
22653;BME280;11493;43.344;26.226;2023-03-04T00:22:02;99402.56;;;6.73;100.00
22653;BME280;11493;43.344;26.226;2023-03-04T00:24:29;99412.66;;;6.72;100.00
22653;BME280;11493;43.344;26.226;2023-03-04T00:26:56;99410.00;;;6.67;100.00
22653;BME280;11493;43.344;26.226;2023-03-04T00:29:23;99411.31;;;6.70;100.00
22653;BME280;11493;43.344;26.226;2023-03-04T00:31:50;99408.91;;;6.68;100.00
22653;BME280;11493;43.344;26.226;2023-03-04T00:34:18;99412.44;;;6.69;100.00
22653;BME280;11493;43.344;26.226;2023-03-04T00:36:45;99399.16;;;6.57;100.00
22653;BME280;11493;43.344;26.226;2023-03-04T00:39:12;99398.59;;;6.60;100.00
22653;BME280;11493;43.344;26.226;2023-03-04T00:41:39;99406.50;;;6.62;100.00
22653;BME280;11493;43.344;26.226;2023-03-04T00:44:06;99414.13;;;6.65;100.00
22653;BME280;11493;43.344;26.226;2023-03-04T00:46:33;99405.94;;;6.65;100.00
22653;BME280;11493;43.344;26.226;2023-03-04T00:49:00;99415.47;;;6.67;100.00
22653;BME280;11493;43.344;26.226;2023-03-04T00:51:27;99403.13;;;6.70;100.00
22653;BME280;11493;43.344;26.226;2023-03-04T00:53:54;99398.47;;;6.70;100.00
22653;BME280;11493;43.344;26.226;2023-03-04T00:56:21;99410.81;;;6.68;100.00
22653;BME280;11493;43.344;26.226;2023-03-04T00:58:47;99403.72;;;6.67;100.00
22653;BME280;11493;43.344;26.226;2023-03-04T01:01:14;99410.19;;;6.76;100.00
22653;BME280;11493;43.344;26.226;2023-03-04T01:03:41;99403.59;;;6.77;100.00
22653;BME280;11493;43.344;26.226;2023-03-04T01:06:09;99400.38;;;6.70;100.00
22653;BME280;11493;43.344;26.226;2023-03-04T01:08:37;99404.47;;;6.72;100.00
22653;BME280;11493;43.344;26.226;2023-03-04T01:11:04;99393.81;;;6.71;100.00
22653;BME280;11493;43.344;26.226;2023-03-04T01:13:32;99389.16;;;6.71;100.00
22653;BME280;11493;43.344;26.226;2023-03-04T01:15:59;99377.00;;;6.58;100.00
22653;BME280;11493;43.344;26.226;2023-03-04T01:18:26;99392.44;;;6.73;100.00
22653;BME280;11493;43.344;26.226;2023-03-04T01:20:53;99385.31;;;6.72;100.00
22653;BME280;11493;43.344;26.226;2023-03-04T01:23:20;99392.13;;;6.75;100.00
22653;BME280;11493;43.344;26.226;2023-03-04T01:25:47;99389.41;;;6.75;100.00
22653;BME280;11493;43.344;26.226;2023-03-04T01:28:14;99384.81;;;6.70;100.00
22653;BME280;11493;43.344;26.226;2023-03-04T01:30:41;99398.03;;;6.87;100.00
22653;BME280;11493;43.344;26.226;2023-03-04T01:33:07;99395.25;;;6.92;100.00
22653;BME280;11493;43.344;26.226;2023-03-04T01:35:34;99389.31;;;6.85;100.00
22653;BME280;11493;43.344;26.226;2023-03-04T01:38:01;99394.25;;;6.83;100.00
22653;BME280;11493;43.344;26.226;2023-03-04T01:40:31;99380.44;;;6.69;100.00
22653;BME280;11493;43.344;26.226;2023-03-04T01:42:58;99379.03;;;6.72;100.00
22653;BME280;11493;43.344;26.226;2023-03-04T01:45:25;99389.66;;;6.78;100.00
22653;BME280;11493;43.344;26.226;2023-03-04T01:47:52;99394.81;;;6.80;100.00
22653;BME280;11493;43.344;26.226;2023-03-04T01:50:25;99394.25;;;6.83;100.00
22653;BME280;11493;43.344;26.226;2023-03-04T01:52:53;99375.78;;;6.70;100.00
22653;BME280;11493;43.344;26.226;2023-03-04T01:55:21;99384.22;;;6.73;100.00
22653;BME280;11493;43.344;26.226;2023-03-04T01:57:49;99384.50;;;6.72;100.00
22653;BME280;11493;43.344;26.226;2023-03-04T02:00:25;99392.13;;;6.75;100.00
22653;BME280;11493;43.344;26.226;2023-03-04T02:02:55;99397.66;;;6.70;100.00
22653;BME280;11493;43.344;26.226;2023-03-04T02:05:23;99388.88;;;6.73;100.00
22653;BME280;11493;43.344;26.226;2023-03-04T02:07:51;99376.38;;;6.67;100.00
22653;BME280;11493;43.344;26.226;2023-03-04T02:10:18;99392.78;;;6.67;100.00
22653;BME280;11493;43.344;26.226;2023-03-04T02:12:45;99381.25;;;6.70;100.00
22653;BME280;11493;43.344;26.226;2023-03-04T02:15:12;99390.56;;;6.69;100.00
22653;BME280;11493;43.344;26.226;2023-03-04T02:17:40;99382.97;;;6.66;100.00
22653;BME280;11493;43.344;26.226;2023-03-04T02:20:59;99383.78;;;6.66;100.00
22653;BME280;11493;43.344;26.226;2023-03-04T02:23:34;99388.72;;;6.64;100.00
22653;BME280;11493;43.344;26.226;2023-03-04T02:26:26;99383.47;;;6.68;100.00
22653;BME280;11493;43.344;26.226;2023-03-04T02:28:56;99381.03;;;6.66;100.00
22653;BME280;11493;43.344;26.226;2023-03-04T02:33:52;99361.94;;;6.61;100.00
22653;BME280;11493;43.344;26.226;2023-03-04T02:36:20;99367.56;;;6.70;100.00
22653;BME280;11493;43.344;26.226;2023-03-04T02:38:50;99364.09;;;6.64;100.00
22653;BME280;11493;43.344;26.226;2023-03-04T02:41:20;99361.47;;;6.54;100.00
22653;BME280;11493;43.344;26.226;2023-03-04T02:43:50;99375.09;;;6.59;100.00
22653;BME280;11493;43.344;26.226;2023-03-04T02:46:17;99376.47;;;6.56;100.00
22653;BME280;11493;43.344;26.226;2023-03-04T02:48:44;99373.16;;;6.59;100.00
22653;BME280;11493;43.344;26.226;2023-03-04T02:51:11;99354.66;;;6.51;100.00
22653;BME280;11493;43.344;26.226;2023-03-04T02:53:38;99370.97;;;6.62;100.00
22653;BME280;11493;43.344;26.226;2023-03-04T02:56:05;99363.56;;;6.62;100.00
22653;BME280;11493;43.344;26.226;2023-03-04T02:58:35;99367.91;;;6.68;100.00
22653;BME280;11493;43.344;26.226;2023-03-04T03:01:05;99342.63;;;6.52;100.00
22653;BME280;11493;43.344;26.226;2023-03-04T03:03:32;99370.63;;;6.68;100.00
22653;BME280;11493;43.344;26.226;2023-03-04T03:05:59;99358.13;;;6.62;100.00
22653;BME280;11493;43.344;26.226;2023-03-04T03:08:26;99361.38;;;6.64;100.00
22653;BME280;11493;43.344;26.226;2023-03-04T03:10:53;99365.44;;;6.67;100.00
22653;BME280;11493;43.344;26.226;2023-03-04T03:13:21;99357.53;;;6.65;100.00
22653;BME280;11493;43.344;26.226;2023-03-04T03:15:49;99362.19;;;6.65;100.00
22653;BME280;11493;43.344;26.226;2023-03-04T03:18:16;99358.13;;;6.62;100.00
22653;BME280;11493;43.344;26.226;2023-03-04T03:20:43;99369.81;;;6.68;100.00
22653;BME280;11493;43.344;26.226;2023-03-04T03:23:10;99362.94;;;6.70;100.00
22653;BME280;11493;43.344;26.226;2023-03-04T03:25:37;99357.25;;;6.67;100.00
22653;BME280;11493;43.344;26.226;2023-03-04T03:28:04;99363.88;;;6.61;100.00
22653;BME280;11493;43.344;26.226;2023-03-04T03:30:32;99370.31;;;6.70;100.00
22653;BME280;11493;43.344;26.226;2023-03-04T03:32:58;99365.09;;;6.73;100.00
22653;BME280;11493;43.344;26.226;2023-03-04T03:35:26;99364.34;;;6.68;100.00
22653;BME280;11493;43.344;26.226;2023-03-04T03:37:53;99373.53;;;6.77;100.00
22653;BME280;11493;43.344;26.226;2023-03-04T03:40:19;99364.03;;;6.69;100.00
22653;BME280;11493;43.344;26.226;2023-03-04T03:42:46;99369.22;;;6.71;100.00
22653;BME280;11493;43.344;26.226;2023-03-04T03:45:13;99361.53;;;6.73;100.00
22653;BME280;11493;43.344;26.226;2023-03-04T03:47:40;99356.16;;;6.68;100.00
22653;BME280;11493;43.344;26.226;2023-03-04T03:50:08;99362.06;;;6.75;100.00
22653;BME280;11493;43.344;26.226;2023-03-04T03:52:35;99364.28;;;6.73;100.00
22653;BME280;11493;43.344;26.226;2023-03-04T03:55:02;99352.88;;;6.66;100.00
22653;BME280;11493;43.344;26.226;2023-03-04T03:57:29;99362.09;;;6.70;100.00
22653;BME280;11493;43.344;26.226;2023-03-04T03:59:55;99373.38;;;6.68;100.00
22653;BME280;11493;43.344;26.226;2023-03-04T04:02:22;99369.28;;;6.66;100.00
22653;BME280;11493;43.344;26.226;2023-03-04T04:04:50;99351.88;;;6.56;100.00
22653;BME280;11493;43.344;26.226;2023-03-04T04:07:17;99372.31;;;6.64;100.00
22653;BME280;11493;43.344;26.226;2023-03-04T04:09:44;99329.03;;;6.42;100.00
22653;BME280;11493;43.344;26.226;2023-03-04T04:12:13;99380.81;;;6.63;100.00
22653;BME280;11493;43.344;26.226;2023-03-04T04:14:40;99371.78;;;6.62;100.00
22653;BME280;11493;43.344;26.226;2023-03-04T04:17:07;99379.13;;;6.67;100.00
22653;BME280;11493;43.344;26.226;2023-03-04T04:19:34;99383.97;;;6.70;100.00
22653;BME280;11493;43.344;26.226;2023-03-04T04:22:02;99378.03;;;6.68;100.00
22653;BME280;11493;43.344;26.226;2023-03-04T04:24:29;99382.34;;;6.69;100.00
22653;BME280;11493;43.344;26.226;2023-03-04T04:26:56;99369.06;;;6.62;100.00
22653;BME280;11493;43.344;26.226;2023-03-04T04:29:23;99367.69;;;6.59;100.00
22653;BME280;11493;43.344;26.226;2023-03-04T04:31:50;99372.31;;;6.64;100.00
22653;BME280;11493;43.344;26.226;2023-03-04T04:34:17;99382.44;;;6.64;100.00
22653;BME280;11493;43.344;26.226;2023-03-04T04:36:44;99379.13;;;6.67;100.00
22653;BME280;11493;43.344;26.226;2023-03-04T04:39:11;99369.06;;;6.62;100.00
22653;BME280;11493;43.344;26.226;2023-03-04T04:41:41;99380.81;;;6.63;100.00
22653;BME280;11493;43.344;26.226;2023-03-04T04:44:09;99380.81;;;6.63;100.00
22653;BME280;11493;43.344;26.226;2023-03-04T04:46:36;99378.06;;;6.63;100.00
22653;BME280;11493;43.344;26.226;2023-03-04T04:49:04;99366.06;;;6.58;100.00
22653;BME280;11493;43.344;26.226;2023-03-04T04:51:33;99382.97;;;6.66;100.00
22653;BME280;11493;43.344;26.226;2023-03-04T04:54:00;99378.03;;;6.68;100.00
22653;BME280;11493;43.344;26.226;2023-03-04T04:56:28;99376.88;;;6.69;100.00
22653;BME280;11493;43.344;26.226;2023-03-04T04:58:56;99379.13;;;6.67;100.00
22653;BME280;11493;43.344;26.226;2023-03-04T05:01:25;99375.78;;;6.70;100.00
22653;BME280;11493;43.344;26.226;2023-03-04T05:03:53;99365.44;;;6.67;100.00
22653;BME280;11493;43.344;26.226;2023-03-04T05:06:22;99379.34;;;6.70;100.00
22653;BME280;11493;43.344;26.226;2023-03-04T05:08:50;99384.81;;;6.70;100.00
22653;BME280;11493;43.344;26.226;2023-03-04T05:11:17;99375.78;;;6.70;100.00
22653;BME280;11493;43.344;26.226;2023-03-04T05:13:45;99377.41;;;6.71;100.00
22653;BME280;11493;43.344;26.226;2023-03-04T05:16:12;99382.31;;;6.74;100.00
22653;BME280;11493;43.344;26.226;2023-03-04T05:18:40;99387.25;;;6.72;100.00
22653;BME280;11493;43.344;26.226;2023-03-04T05:21:07;99376.97;;;6.64;100.00
22653;BME280;11493;43.344;26.226;2023-03-04T05:23:38;99396.75;;;6.79;100.00
22653;BME280;11493;43.344;26.226;2023-03-04T05:26:06;99400.00;;;6.81;100.00
22653;BME280;11493;43.344;26.226;2023-03-04T05:28:34;99395.34;;;6.82;100.00
22653;BME280;11493;43.344;26.226;2023-03-04T05:31:02;99401.63;;;6.82;100.00
22653;BME280;11493;43.344;26.226;2023-03-04T05:33:29;99384.41;;;6.82;100.00
22653;BME280;11493;43.344;26.226;2023-03-04T05:35:56;99400.50;;;6.88;100.00
22653;BME280;11493;43.344;26.226;2023-03-04T05:38:23;99394.88;;;6.75;100.00
22653;BME280;11493;43.344;26.226;2023-03-04T05:40:59;99385.09;;;6.69;100.00
22653;BME280;11493;43.344;26.226;2023-03-04T05:43:27;99396.50;;;6.76;100.00
22653;BME280;11493;43.344;26.226;2023-03-04T05:45:54;99408.41;;;6.90;100.00
22653;BME280;11493;43.344;26.226;2023-03-04T05:48:21;99398.63;;;6.84;100.00
22653;BME280;11493;43.344;26.226;2023-03-04T05:50:56;99403.19;;;6.93;100.00
22653;BME280;11493;43.344;26.226;2023-03-04T05:53:23;99410.56;;;6.93;100.00
22653;BME280;11493;43.344;26.226;2023-03-04T05:55:51;99399.66;;;6.88;100.00
22653;BME280;11493;43.344;26.226;2023-03-04T05:58:18;99416.00;;;6.98;100.00
22653;BME280;11493;43.344;26.226;2023-03-04T06:00:46;99419.78;;;7.02;100.00
22653;BME280;11493;43.344;26.226;2023-03-04T06:03:15;99414.06;;;6.99;100.00
22653;BME280;11493;43.344;26.226;2023-03-04T06:05:43;99424.66;;;7.05;100.00
22653;BME280;11493;43.344;26.226;2023-03-04T06:08:11;99433.13;;;7.09;100.00
22653;BME280;11493;43.344;26.226;2023-03-04T06:10:39;99407.97;;;7.07;100.00
22653;BME280;11493;43.344;26.226;2023-03-04T06:13:07;99430.63;;;7.12;100.00
22653;BME280;11493;43.344;26.226;2023-03-04T06:15:35;99424.03;;;7.13;100.00
22653;BME280;11493;43.344;26.226;2023-03-04T06:18:03;99432.72;;;7.20;100.00
22653;BME280;11493;43.344;26.226;2023-03-04T06:20:30;99430.47;;;7.28;100.00
22653;BME280;11493;43.344;26.226;2023-03-04T06:22:57;99437.44;;;7.39;100.00
22653;BME280;11493;43.344;26.226;2023-03-04T06:25:24;99433.00;;;7.43;100.00
22653;BME280;11493;43.344;26.226;2023-03-04T06:27:51;99424.28;;;7.41;100.00
22653;BME280;11493;43.344;26.226;2023-03-04T06:30:21;99432.66;;;7.49;100.00
22653;BME280;11493;43.344;26.226;2023-03-04T06:32:48;99440.34;;;7.47;100.00
22653;BME280;11493;43.344;26.226;2023-03-04T06:35:15;99436.19;;;7.50;100.00
22653;BME280;11493;43.344;26.226;2023-03-04T06:37:42;99429.63;;;7.51;100.00
22653;BME280;11493;43.344;26.226;2023-03-04T06:40:10;99427.34;;;7.58;100.00
22653;BME280;11493;43.344;26.226;2023-03-04T06:42:37;99405.03;;;7.46;100.00
22653;BME280;11493;43.344;26.226;2023-03-04T06:45:06;99435.72;;;7.67;100.00
22653;BME280;11493;43.344;26.226;2023-03-04T06:47:33;99435.97;;;7.70;100.00
22653;BME280;11493;43.344;26.226;2023-03-04T06:50:00;99424.47;;;7.68;100.00
22653;BME280;11493;43.344;26.226;2023-03-04T06:52:28;99429.25;;;7.81;100.00
22653;BME280;11493;43.344;26.226;2023-03-04T06:54:55;99433.31;;;7.84;100.00
22653;BME280;11493;43.344;26.226;2023-03-04T06:57:22;99422.06;;;7.85;100.00
22653;BME280;11493;43.344;26.226;2023-03-04T06:59:49;99425.25;;;7.93;100.00
22653;BME280;11493;43.344;26.226;2023-03-04T07:02:16;99436.66;;;8.00;100.00
22653;BME280;11493;43.344;26.226;2023-03-04T07:04:43;99423.13;;;8.08;100.00
22653;BME280;11493;43.344;26.226;2023-03-04T07:07:10;99416.16;;;8.16;100.00
22653;BME280;11493;43.344;26.226;2023-03-04T07:09:38;99403.97;;;8.22;100.00
22653;BME280;11493;43.344;26.226;2023-03-04T07:12:05;99420.22;;;8.37;100.00
22653;BME280;11493;43.344;26.226;2023-03-04T07:14:32;99418.31;;;8.38;100.00
22653;BME280;11493;43.344;26.226;2023-03-04T07:16:58;99420.66;;;8.44;100.00
22653;BME280;11493;43.344;26.226;2023-03-04T07:19:25;99410.13;;;8.51;100.00
22653;BME280;11493;43.344;26.226;2023-03-04T07:21:52;99399.53;;;8.45;100.00
22653;BME280;11493;43.344;26.226;2023-03-04T07:24:19;99405.22;;;8.67;100.00
22653;BME280;11493;43.344;26.226;2023-03-04T07:26:46;99396.25;;;8.62;100.00
22653;BME280;11493;43.344;26.226;2023-03-04T07:29:13;99412.75;;;8.75;100.00
22653;BME280;11493;43.344;26.226;2023-03-04T07:31:40;99382.47;;;8.67;100.00
22653;BME280;11493;43.344;26.226;2023-03-04T07:34:09;99402.50;;;8.95;100.00
22653;BME280;11493;43.344;26.226;2023-03-04T07:36:37;99404.25;;;9.04;100.00
22653;BME280;11493;43.344;26.226;2023-03-04T07:39:05;99396.03;;;9.04;100.00
22653;BME280;11493;43.344;26.226;2023-03-04T07:41:33;99403.53;;;8.99;100.00
22653;BME280;11493;43.344;26.226;2023-03-04T07:44:02;99408.03;;;9.08;100.00
22653;BME280;11493;43.344;26.226;2023-03-04T07:46:30;99391.56;;;9.08;100.00
22653;BME280;11493;43.344;26.226;2023-03-04T07:48:57;99407.53;;;9.20;100.00
22653;BME280;11493;43.344;26.226;2023-03-04T07:51:25;99397.16;;;9.31;100.00
22653;BME280;11493;43.344;26.226;2023-03-04T07:53:55;99395.97;;;9.37;100.00
22653;BME280;11493;43.344;26.226;2023-03-04T07:56:25;99382.22;;;9.50;100.00
22653;BME280;11493;43.344;26.226;2023-03-04T07:58:53;99388.00;;;9.63;100.00
22653;BME280;11493;43.344;26.226;2023-03-04T08:01:25;99384.63;;;9.66;100.00
22653;BME280;11493;43.344;26.226;2023-03-04T08:03:52;99386.66;;;9.74;100.00
22653;BME280;11493;43.344;26.226;2023-03-04T08:06:20;99388.06;;;9.85;100.00
22653;BME280;11493;43.344;26.226;2023-03-04T08:08:48;99392.50;;;9.95;100.00
22653;BME280;11493;43.344;26.226;2023-03-04T08:11:19;99394.09;;;10.09;100.00
22653;BME280;11493;43.344;26.226;2023-03-04T08:13:47;99388.69;;;10.18;99.62
22653;BME280;11493;43.344;26.226;2023-03-04T08:16:17;99384.31;;;10.17;98.34
22653;BME280;11493;43.344;26.226;2023-03-04T08:18:46;99391.03;;;10.25;98.88
22653;BME280;11493;43.344;26.226;2023-03-04T08:21:15;99393.84;;;10.33;98.74
22653;BME280;11493;43.344;26.226;2023-03-04T08:23:45;99385.03;;;10.45;97.08
22653;BME280;11493;43.344;26.226;2023-03-04T08:26:24;99388.97;;;10.52;95.05
22653;BME280;11493;43.344;26.226;2023-03-04T08:28:52;99376.41;;;10.38;94.56
22653;BME280;11493;43.344;26.226;2023-03-04T08:31:20;99393.47;;;10.48;94.04
22653;BME280;11493;43.344;26.226;2023-03-04T08:33:47;99393.53;;;10.57;93.71
22653;BME280;11493;43.344;26.226;2023-03-04T08:36:14;99382.03;;;10.55;95.59
22653;BME280;11493;43.344;26.226;2023-03-04T08:38:42;99392.66;;;10.70;94.29
22653;BME280;11493;43.344;26.226;2023-03-04T08:41:09;99388.69;;;10.85;93.35
22653;BME280;11493;43.344;26.226;2023-03-04T08:43:36;99390.50;;;10.90;93.11
22653;BME280;11493;43.344;26.226;2023-03-04T08:46:03;99380.31;;;10.90;92.78
22653;BME280;11493;43.344;26.226;2023-03-04T08:48:31;99384.81;;;10.86;91.81
22653;BME280;11493;43.344;26.226;2023-03-04T08:50:58;99379.31;;;10.86;91.44
22653;BME280;11493;43.344;26.226;2023-03-04T08:53:25;99383.50;;;10.83;90.12
22653;BME280;11493;43.344;26.226;2023-03-04T08:55:52;99378.06;;;10.92;89.86
22653;BME280;11493;43.344;26.226;2023-03-04T08:58:19;99385.34;;;10.97;87.16
22653;BME280;11493;43.344;26.226;2023-03-04T09:00:47;99379.28;;;11.08;87.31
22653;BME280;11493;43.344;26.226;2023-03-04T09:03:15;99378.13;;;11.09;87.65
22653;BME280;11493;43.344;26.226;2023-03-04T09:05:44;99379.94;;;11.14;86.87
22653;BME280;11493;43.344;26.226;2023-03-04T09:08:12;99367.44;;;11.16;87.52
22653;BME280;11493;43.344;26.226;2023-03-04T09:10:40;99352.88;;;11.07;88.19
22653;BME280;11493;43.344;26.226;2023-03-04T09:13:07;99362.47;;;11.27;87.78
22653;BME280;11493;43.344;26.226;2023-03-04T09:15:43;99352.88;;;11.07;86.41
22653;BME280;11493;43.344;26.226;2023-03-04T09:18:10;99347.25;;;11.30;87.03
22653;BME280;11493;43.344;26.226;2023-03-04T09:20:37;99361.44;;;11.54;84.66
22653;BME280;11493;43.344;26.226;2023-03-04T09:23:04;99346.66;;;11.50;85.98
22653;BME280;11493;43.344;26.226;2023-03-04T09:25:32;99340.63;;;11.31;86.47
22653;BME280;11493;43.344;26.226;2023-03-04T09:27:59;99336.13;;;11.52;86.12
22653;BME280;11493;43.344;26.226;2023-03-04T09:30:26;99330.59;;;11.35;86.32
22653;BME280;11493;43.344;26.226;2023-03-04T09:32:54;99348.44;;;11.46;86.12
22653;BME280;11493;43.344;26.226;2023-03-04T09:35:21;99339.38;;;11.54;87.11
22653;BME280;11493;43.344;26.226;2023-03-04T09:37:50;99343.31;;;11.70;86.24
22653;BME280;11493;43.344;26.226;2023-03-04T09:40:27;99333.91;;;11.71;86.33
22653;BME280;11493;43.344;26.226;2023-03-04T09:42:59;99333.91;;;11.71;85.71
22653;BME280;11493;43.344;26.226;2023-03-04T09:45:56;99328.06;;;11.64;85.48
22653;BME280;11493;43.344;26.226;2023-03-04T09:48:27;99327.44;;;11.76;85.13
22653;BME280;11493;43.344;26.226;2023-03-04T09:53:41;99286.78;;;11.16;86.72
22653;BME280;11493;43.344;26.226;2023-03-04T09:56:10;99327.81;;;11.26;88.46
22653;BME280;11493;43.344;26.226;2023-03-04T09:59:16;99314.81;;;11.18;89.28
22653;BME280;11493;43.344;26.226;2023-03-04T10:01:55;99319.75;;;11.47;89.04
22653;BME280;11493;43.344;26.226;2023-03-04T10:04:33;99319.41;;;11.40;90.29
22653;BME280;11493;43.344;26.226;2023-03-04T10:07:14;99308.72;;;11.38;87.30
22653;BME280;11493;43.344;26.226;2023-03-04T10:09:50;99298.47;;;11.22;88.28
22653;BME280;11493;43.344;26.226;2023-03-04T10:12:21;99294.56;;;11.23;88.43
22653;BME280;11493;43.344;26.226;2023-03-04T10:14:55;99298.59;;;11.16;88.08
22653;BME280;11493;43.344;26.226;2023-03-04T10:27:48;99283.59;;;11.40;87.99
22653;BME280;11493;43.344;26.226;2023-03-04T10:30:25;99278.09;;;11.40;86.89
22653;BME280;11493;43.344;26.226;2023-03-04T10:32:56;99278.78;;;11.71;88.52
22653;BME280;11493;43.344;26.226;2023-03-04T10:35:27;99254.16;;;11.83;86.74
22653;BME280;11493;43.344;26.226;2023-03-04T10:38:01;99278.94;;;12.27;84.75
22653;BME280;11493;43.344;26.226;2023-03-04T10:40:28;99256.53;;;12.20;83.66
22653;BME280;11493;43.344;26.226;2023-03-04T10:43:02;99272.59;;;12.26;81.92
22653;BME280;11493;43.344;26.226;2023-03-04T10:45:38;99241.28;;;12.22;81.95
22653;BME280;11493;43.344;26.226;2023-03-04T10:48:19;99255.66;;;12.54;82.73
22653;BME280;11493;43.344;26.226;2023-03-04T10:50:46;99256.72;;;12.70;83.04
22653;BME280;11493;43.344;26.226;2023-03-04T10:53:31;99254.91;;;12.74;81.26
22653;BME280;11493;43.344;26.226;2023-03-04T10:55:59;99249.75;;;12.64;81.93
22653;BME280;11493;43.344;26.226;2023-03-04T10:58:26;99239.91;;;12.92;83.25
22653;BME280;11493;43.344;26.226;2023-03-04T11:01:04;99234.28;;;13.09;82.02
22653;BME280;11493;43.344;26.226;2023-03-04T11:03:35;99233.53;;;13.30;80.84
22653;BME280;11493;43.344;26.226;2023-03-04T11:06:21;99229.34;;;13.44;79.18
22653;BME280;11493;43.344;26.226;2023-03-04T11:08:56;99209.28;;;13.56;80.38
22653;BME280;11493;43.344;26.226;2023-03-04T11:11:36;99213.03;;;13.52;79.10
22653;BME280;11493;43.344;26.226;2023-03-04T11:14:30;99207.47;;;13.10;79.01
22653;BME280;11493;43.344;26.226;2023-03-04T11:17:02;99200.19;;;13.05;77.93
22653;BME280;11493;43.344;26.226;2023-03-04T11:19:40;99199.38;;;13.05;78.19
22653;BME280;11493;43.344;26.226;2023-03-04T11:22:09;99189.09;;;12.55;77.64
22653;BME280;11493;43.344;26.226;2023-03-04T11:24:39;99191.72;;;12.52;79.03
22653;BME280;11493;43.344;26.226;2023-03-04T11:27:14;99196.22;;;12.56;78.99
22653;BME280;11493;43.344;26.226;2023-03-04T11:32:50;99186.69;;;12.45;79.25
22653;BME280;11493;43.344;26.226;2023-03-04T11:35:33;99186.06;;;12.39;79.66
22653;BME280;11493;43.344;26.226;2023-03-04T11:40:53;99189.78;;;12.43;77.30
22653;BME280;11493;43.344;26.226;2023-03-04T11:43:40;99174.47;;;12.55;77.19
22653;BME280;11493;43.344;26.226;2023-03-04T11:57:01;99162.91;;;12.23;80.25
22653;BME280;11493;43.344;26.226;2023-03-04T12:03:20;99162.13;;;12.14;81.85
22653;BME280;11493;43.344;26.226;2023-03-04T12:06:16;99158.81;;;12.38;80.03
22653;BME280;11493;43.344;26.226;2023-03-04T12:14:51;99159.38;;;12.14;78.88
22653;BME280;11493;43.344;26.226;2023-03-04T12:17:30;99153.78;;;11.84;79.31
22653;BME280;11493;43.344;26.226;2023-03-04T12:31:32;99139.34;;;11.70;80.40
22653;BME280;11493;43.344;26.226;2023-03-04T12:37:07;99146.50;;;11.80;81.78
22653;BME280;11493;43.344;26.226;2023-03-04T12:45:19;99144.19;;;11.91;80.75
22653;BME280;11493;43.344;26.226;2023-03-04T12:53:14;99123.78;;;11.74;80.30
22653;BME280;11493;43.344;26.226;2023-03-04T12:55:44;99124.13;;;11.81;82.24
22653;BME280;11493;43.344;26.226;2023-03-04T12:58:17;99127.78;;;11.94;79.50
22653;BME280;11493;43.344;26.226;2023-03-04T13:09:10;99106.19;;;12.05;80.48
22653;BME280;11493;43.344;26.226;2023-03-04T13:11:51;99105.19;;;12.09;79.81
22653;BME280;11493;43.344;26.226;2023-03-04T13:16:52;99104.63;;;12.33;77.43
22653;BME280;11493;43.344;26.226;2023-03-04T13:43:54;99065.91;;;12.21;78.75
22653;BME280;11493;43.344;26.226;2023-03-04T13:54:10;99047.97;;;11.98;75.54
22653;BME280;11493;43.344;26.226;2023-03-04T13:56:40;99042.09;;;12.08;76.37
22653;BME280;11493;43.344;26.226;2023-03-04T14:04:32;99041.63;;;12.06;78.41
22653;BME280;11493;43.344;26.226;2023-03-04T14:07:02;99023.66;;;12.00;78.47
22653;BME280;11493;43.344;26.226;2023-03-04T14:09:33;99031.59;;;12.01;78.79
22653;BME280;11493;43.344;26.226;2023-03-04T14:12:12;99031.59;;;12.01;78.64
22653;BME280;11493;43.344;26.226;2023-03-04T14:14:48;99033.53;;;12.01;78.80
22653;BME280;11493;43.344;26.226;2023-03-04T14:17:23;99022.75;;;12.16;78.77
22653;BME280;11493;43.344;26.226;2023-03-04T14:19:51;99013.16;;;12.23;79.10
22653;BME280;11493;43.344;26.226;2023-03-04T14:22:23;99007.13;;;12.29;78.81
22653;BME280;11493;43.344;26.226;2023-03-04T14:24:54;99020.28;;;12.24;79.44
22653;BME280;11493;43.344;26.226;2023-03-04T14:27:21;99001.84;;;12.15;78.65
22653;BME280;11493;43.344;26.226;2023-03-04T14:30:18;98999.03;;;12.24;77.87
22653;BME280;11493;43.344;26.226;2023-03-04T14:33:01;99001.97;;;12.19;77.28
22653;BME280;11493;43.344;26.226;2023-03-04T14:35:30;98999.88;;;12.16;78.07
22653;BME280;11493;43.344;26.226;2023-03-04T14:38:04;98990.00;;;12.15;77.94
22653;BME280;11493;43.344;26.226;2023-03-04T14:40:35;99002.50;;;12.12;78.99
22653;BME280;11493;43.344;26.226;2023-03-04T14:43:15;98994.56;;;12.11;78.90
22653;BME280;11493;43.344;26.226;2023-03-04T14:45:44;98989.72;;;12.08;78.31
22653;BME280;11493;43.344;26.226;2023-03-04T14:48:40;98969.06;;;12.14;77.99
22653;BME280;11493;43.344;26.226;2023-03-04T14:54:25;98973.06;;;12.25;78.30
22653;BME280;11493;43.344;26.226;2023-03-04T14:56:53;98959.66;;;12.15;78.69
22653;BME280;11493;43.344;26.226;2023-03-04T14:59:31;98982.19;;;12.17;78.82
22653;BME280;11493;43.344;26.226;2023-03-04T15:05:28;98976.63;;;11.96;79.83
22653;BME280;11493;43.344;26.226;2023-03-04T15:07:59;98973.94;;;11.88;79.67